sensor_id;sensor_type;location;lat;lon;timestamp;P1;durP1;ratioP1;P2;durP2;ratioP2
54917;SDS011;40818;50.562;7.454;2022-10-13T00:00:58;20.83;;;9.57;;
54917;SDS011;40818;50.562;7.454;2022-10-13T00:06:04;28.05;;;10.20;;
54917;SDS011;40818;50.562;7.454;2022-10-13T00:11:09;17.92;;;9.75;;
54917;SDS011;40818;50.562;7.454;2022-10-13T00:16:16;58.63;;;11.98;;
54917;SDS011;40818;50.562;7.454;2022-10-13T00:21:24;272.92;;;23.27;;
54917;SDS011;40818;50.562;7.454;2022-10-13T00:26:29;424.50;;;31.80;;
54917;SDS011;40818;50.562;7.454;2022-10-13T00:31:33;548.47;;;39.35;;
54917;SDS011;40818;50.562;7.454;2022-10-13T00:36:40;627.83;;;46.20;;
54917;SDS011;40818;50.562;7.454;2022-10-13T00:41:43;435.05;;;35.00;;
54917;SDS011;40818;50.562;7.454;2022-10-13T00:46:47;291.73;;;19.42;;
54917;SDS011;40818;50.562;7.454;2022-10-13T00:51:53;272.75;;;22.50;;
54917;SDS011;40818;50.562;7.454;2022-10-13T00:56:56;325.05;;;21.25;;
54917;SDS011;40818;50.562;7.454;2022-10-13T01:01:59;15.48;;;8.70;;
54917;SDS011;40818;50.562;7.454;2022-10-13T01:07:06;15.15;;;9.18;;
54917;SDS011;40818;50.562;7.454;2022-10-13T01:12:13;13.32;;;8.30;;
54917;SDS011;40818;50.562;7.454;2022-10-13T01:17:28;15.05;;;8.85;;
54917;SDS011;40818;50.562;7.454;2022-10-13T01:22:43;81.68;;;13.13;;
54917;SDS011;40818;50.562;7.454;2022-10-13T01:28:02;288.80;;;21.48;;
54917;SDS011;40818;50.562;7.454;2022-10-13T01:33:22;690.22;;;49.00;;
54917;SDS011;40818;50.562;7.454;2022-10-13T01:38:33;253.90;;;18.80;;
54917;SDS011;40818;50.562;7.454;2022-10-13T01:43:42;57.20;;;10.40;;
54917;SDS011;40818;50.562;7.454;2022-10-13T01:48:51;15.27;;;8.35;;
54917;SDS011;40818;50.562;7.454;2022-10-13T01:53:57;25.50;;;9.73;;
54917;SDS011;40818;50.562;7.454;2022-10-13T01:59:02;22.75;;;10.93;;
54917;SDS011;40818;50.562;7.454;2022-10-13T02:04:16;20.60;;;10.88;;
54917;SDS011;40818;50.562;7.454;2022-10-13T02:09:26;26.52;;;10.80;;
54917;SDS011;40818;50.562;7.454;2022-10-13T02:14:33;20.80;;;10.77;;
54917;SDS011;40818;50.562;7.454;2022-10-13T02:19:42;24.00;;;11.73;;
54917;SDS011;40818;50.562;7.454;2022-10-13T02:24:47;26.08;;;11.93;;
54917;SDS011;40818;50.562;7.454;2022-10-13T02:29:52;24.50;;;11.80;;
54917;SDS011;40818;50.562;7.454;2022-10-13T02:35:05;21.75;;;12.18;;
54917;SDS011;40818;50.562;7.454;2022-10-13T02:40:10;26.52;;;11.07;;
54917;SDS011;40818;50.562;7.454;2022-10-13T02:45:14;29.10;;;12.93;;
54917;SDS011;40818;50.562;7.454;2022-10-13T02:50:20;40.25;;;13.90;;
54917;SDS011;40818;50.562;7.454;2022-10-13T02:55:24;31.83;;;13.70;;
54917;SDS011;40818;50.562;7.454;2022-10-13T03:00:29;23.20;;;12.73;;
54917;SDS011;40818;50.562;7.454;2022-10-13T03:05:35;22.85;;;12.38;;
54917;SDS011;40818;50.562;7.454;2022-10-13T03:10:39;24.55;;;11.80;;
54917;SDS011;40818;50.562;7.454;2022-10-13T03:15:42;27.73;;;11.68;;
54917;SDS011;40818;50.562;7.454;2022-10-13T03:20:56;25.40;;;13.55;;
54917;SDS011;40818;50.562;7.454;2022-10-13T03:26:01;30.88;;;14.45;;
54917;SDS011;40818;50.562;7.454;2022-10-13T03:31:05;25.23;;;14.23;;
54917;SDS011;40818;50.562;7.454;2022-10-13T03:36:12;25.23;;;12.07;;
54917;SDS011;40818;50.562;7.454;2022-10-13T03:41:16;25.50;;;13.23;;
54917;SDS011;40818;50.562;7.454;2022-10-13T03:46:23;32.92;;;13.50;;
54917;SDS011;40818;50.562;7.454;2022-10-13T03:51:34;32.25;;;13.90;;
54917;SDS011;40818;50.562;7.454;2022-10-13T03:56:37;30.35;;;14.40;;
54917;SDS011;40818;50.562;7.454;2022-10-13T04:01:42;29.20;;;14.15;;
54917;SDS011;40818;50.562;7.454;2022-10-13T04:06:48;27.35;;;13.32;;
54917;SDS011;40818;50.562;7.454;2022-10-13T04:11:51;26.20;;;13.00;;
54917;SDS011;40818;50.562;7.454;2022-10-13T04:16:55;25.98;;;12.68;;
54917;SDS011;40818;50.562;7.454;2022-10-13T04:22:01;34.47;;;15.70;;
54917;SDS011;40818;50.562;7.454;2022-10-13T04:27:04;28.42;;;13.07;;
54917;SDS011;40818;50.562;7.454;2022-10-13T04:32:08;33.60;;;13.35;;
54917;SDS011;40818;50.562;7.454;2022-10-13T04:37:14;24.75;;;12.85;;
54917;SDS011;40818;50.562;7.454;2022-10-13T04:42:17;23.27;;;12.40;;
54917;SDS011;40818;50.562;7.454;2022-10-13T04:47:21;30.10;;;13.77;;
54917;SDS011;40818;50.562;7.454;2022-10-13T04:52:27;35.03;;;14.40;;
54917;SDS011;40818;50.562;7.454;2022-10-13T04:57:31;30.33;;;13.50;;
54917;SDS011;40818;50.562;7.454;2022-10-13T05:02:35;31.55;;;14.43;;
54917;SDS011;40818;50.562;7.454;2022-10-13T05:07:41;27.63;;;12.70;;
54917;SDS011;40818;50.562;7.454;2022-10-13T05:12:44;33.15;;;14.93;;
54917;SDS011;40818;50.562;7.454;2022-10-13T05:17:47;32.97;;;14.88;;
54917;SDS011;40818;50.562;7.454;2022-10-13T05:22:54;38.28;;;15.75;;
54917;SDS011;40818;50.562;7.454;2022-10-13T05:27:57;39.42;;;14.60;;
54917;SDS011;40818;50.562;7.454;2022-10-13T05:33:01;35.05;;;15.30;;
54917;SDS011;40818;50.562;7.454;2022-10-13T05:38:07;32.88;;;14.75;;
54917;SDS011;40818;50.562;7.454;2022-10-13T05:43:11;29.60;;;14.27;;
54917;SDS011;40818;50.562;7.454;2022-10-13T05:48:14;33.53;;;13.35;;
54917;SDS011;40818;50.562;7.454;2022-10-13T05:53:20;32.65;;;13.60;;
54917;SDS011;40818;50.562;7.454;2022-10-13T05:58:24;28.65;;;13.15;;
54917;SDS011;40818;50.562;7.454;2022-10-13T06:03:28;35.33;;;15.10;;
54917;SDS011;40818;50.562;7.454;2022-10-13T06:08:34;290.20;;;26.63;;
54917;SDS011;40818;50.562;7.454;2022-10-13T06:13:38;36.03;;;13.48;;
54917;SDS011;40818;50.562;7.454;2022-10-13T06:18:42;35.83;;;13.20;;
54917;SDS011;40818;50.562;7.454;2022-10-13T06:23:48;28.27;;;11.70;;
54917;SDS011;40818;50.562;7.454;2022-10-13T06:28:53;27.90;;;12.98;;
54917;SDS011;40818;50.562;7.454;2022-10-13T06:33:57;36.35;;;14.70;;
54917;SDS011;40818;50.562;7.454;2022-10-13T06:39:03;26.85;;;13.38;;
54917;SDS011;40818;50.562;7.454;2022-10-13T06:44:07;31.00;;;13.70;;
54917;SDS011;40818;50.562;7.454;2022-10-13T06:49:10;28.88;;;12.88;;
54917;SDS011;40818;50.562;7.454;2022-10-13T06:54:16;34.90;;;14.57;;
54917;SDS011;40818;50.562;7.454;2022-10-13T06:59:20;36.47;;;13.95;;
54917;SDS011;40818;50.562;7.454;2022-10-13T07:04:25;30.30;;;15.10;;
54917;SDS011;40818;50.562;7.454;2022-10-13T07:09:33;30.98;;;15.93;;
54917;SDS011;40818;50.562;7.454;2022-10-13T07:14:38;44.10;;;17.67;;
54917;SDS011;40818;50.562;7.454;2022-10-13T07:19:41;37.55;;;15.50;;
54917;SDS011;40818;50.562;7.454;2022-10-13T07:24:53;38.28;;;15.98;;
54917;SDS011;40818;50.562;7.454;2022-10-13T07:29:57;33.22;;;16.48;;
54917;SDS011;40818;50.562;7.454;2022-10-13T07:35:00;40.10;;;14.60;;
54917;SDS011;40818;50.562;7.454;2022-10-13T07:40:07;30.80;;;13.52;;
54917;SDS011;40818;50.562;7.454;2022-10-13T07:45:11;31.48;;;13.88;;
54917;SDS011;40818;50.562;7.454;2022-10-13T07:50:15;33.35;;;12.85;;
54917;SDS011;40818;50.562;7.454;2022-10-13T07:55:21;36.42;;;12.95;;
54917;SDS011;40818;50.562;7.454;2022-10-13T08:00:27;29.35;;;11.85;;
54917;SDS011;40818;50.562;7.454;2022-10-13T08:05:31;22.88;;;11.98;;
54917;SDS011;40818;50.562;7.454;2022-10-13T08:10:38;25.85;;;11.07;;
54917;SDS011;40818;50.562;7.454;2022-10-13T08:15:43;24.65;;;10.88;;
54917;SDS011;40818;50.562;7.454;2022-10-13T08:20:47;25.10;;;10.00;;
54917;SDS011;40818;50.562;7.454;2022-10-13T08:25:54;27.75;;;10.63;;
54917;SDS011;40818;50.562;7.454;2022-10-13T08:30:58;27.85;;;11.23;;
54917;SDS011;40818;50.562;7.454;2022-10-13T08:36:01;25.27;;;10.13;;
54917;SDS011;40818;50.562;7.454;2022-10-13T08:41:13;23.83;;;8.43;;
54917;SDS011;40818;50.562;7.454;2022-10-13T08:46:20;22.55;;;9.93;;
54917;SDS011;40818;50.562;7.454;2022-10-13T08:51:27;22.17;;;8.32;;
54917;SDS011;40818;50.562;7.454;2022-10-13T08:56:34;23.45;;;8.88;;
54917;SDS011;40818;50.562;7.454;2022-10-13T09:01:39;24.98;;;9.50;;
54917;SDS011;40818;50.562;7.454;2022-10-13T09:06:49;17.00;;;7.45;;
54917;SDS011;40818;50.562;7.454;2022-10-13T09:11:58;19.55;;;6.80;;
54917;SDS011;40818;50.562;7.454;2022-10-13T09:17:15;25.95;;;8.73;;
54917;SDS011;40818;50.562;7.454;2022-10-13T09:22:21;20.33;;;6.90;;
54917;SDS011;40818;50.562;7.454;2022-10-13T09:27:29;26.58;;;7.25;;
54917;SDS011;40818;50.562;7.454;2022-10-13T09:32:45;21.77;;;8.35;;
54917;SDS011;40818;50.562;7.454;2022-10-13T09:38:00;17.08;;;7.28;;
54917;SDS011;40818;50.562;7.454;2022-10-13T09:43:15;21.55;;;7.32;;
54917;SDS011;40818;50.562;7.454;2022-10-13T09:48:27;16.50;;;6.43;;
54917;SDS011;40818;50.562;7.454;2022-10-13T09:53:33;15.60;;;6.65;;
54917;SDS011;40818;50.562;7.454;2022-10-13T09:58:43;18.70;;;5.68;;
54917;SDS011;40818;50.562;7.454;2022-10-13T10:03:53;11.40;;;4.40;;
54917;SDS011;40818;50.562;7.454;2022-10-13T10:09:01;11.93;;;4.82;;
54917;SDS011;40818;50.562;7.454;2022-10-13T10:14:16;16.25;;;4.93;;
54917;SDS011;40818;50.562;7.454;2022-10-13T10:19:27;10.20;;;4.20;;
54917;SDS011;40818;50.562;7.454;2022-10-13T10:24:41;17.85;;;4.53;;
54917;SDS011;40818;50.562;7.454;2022-10-13T10:29:54;14.60;;;4.80;;
54917;SDS011;40818;50.562;7.454;2022-10-13T10:35:08;19.17;;;5.57;;
54917;SDS011;40818;50.562;7.454;2022-10-13T10:40:18;14.77;;;4.95;;
54917;SDS011;40818;50.562;7.454;2022-10-13T10:45:30;17.48;;;5.53;;
54917;SDS011;40818;50.562;7.454;2022-10-13T10:50:36;10.43;;;4.30;;
54917;SDS011;40818;50.562;7.454;2022-10-13T10:55:44;10.57;;;3.53;;
54917;SDS011;40818;50.562;7.454;2022-10-13T11:00:58;20.13;;;6.20;;
54917;SDS011;40818;50.562;7.454;2022-10-13T11:06:24;14.60;;;6.28;;
54917;SDS011;40818;50.562;7.454;2022-10-13T11:11:36;13.45;;;4.75;;
54917;SDS011;40818;50.562;7.454;2022-10-13T11:22:18;14.17;;;4.10;;
54917;SDS011;40818;50.562;7.454;2022-10-13T11:27:25;7.68;;;2.88;;
54917;SDS011;40818;50.562;7.454;2022-10-13T11:32:43;12.13;;;4.03;;
54917;SDS011;40818;50.562;7.454;2022-10-13T11:38:07;15.43;;;2.97;;
54917;SDS011;40818;50.562;7.454;2022-10-13T11:43:30;8.98;;;2.17;;
54917;SDS011;40818;50.562;7.454;2022-10-13T11:54:18;8.27;;;2.15;;
54917;SDS011;40818;50.562;7.454;2022-10-13T11:59:30;9.98;;;2.30;;
54917;SDS011;40818;50.562;7.454;2022-10-13T12:04:39;11.90;;;1.85;;
54917;SDS011;40818;50.562;7.454;2022-10-13T12:09:47;19.00;;;2.65;;
54917;SDS011;40818;50.562;7.454;2022-10-13T12:14:54;8.05;;;1.92;;
54917;SDS011;40818;50.562;7.454;2022-10-13T12:20:15;10.68;;;1.75;;
54917;SDS011;40818;50.562;7.454;2022-10-13T12:25:24;11.32;;;1.95;;
54917;SDS011;40818;50.562;7.454;2022-10-13T12:30:33;11.20;;;1.42;;
54917;SDS011;40818;50.562;7.454;2022-10-13T12:35:39;10.98;;;1.67;;
54917;SDS011;40818;50.562;7.454;2022-10-13T12:40:43;10.13;;;2.20;;
54917;SDS011;40818;50.562;7.454;2022-10-13T12:45:47;7.97;;;2.78;;
54917;SDS011;40818;50.562;7.454;2022-10-13T12:50:53;13.57;;;2.95;;
54917;SDS011;40818;50.562;7.454;2022-10-13T12:55:57;7.85;;;1.95;;
54917;SDS011;40818;50.562;7.454;2022-10-13T13:01:05;9.45;;;2.42;;
54917;SDS011;40818;50.562;7.454;2022-10-13T13:06:24;11.25;;;2.20;;
54917;SDS011;40818;50.562;7.454;2022-10-13T13:11:32;9.48;;;1.70;;
54917;SDS011;40818;50.562;7.454;2022-10-13T13:16:37;8.88;;;2.22;;
54917;SDS011;40818;50.562;7.454;2022-10-13T13:21:44;8.65;;;2.67;;
54917;SDS011;40818;50.562;7.454;2022-10-13T13:26:47;13.95;;;2.83;;
54917;SDS011;40818;50.562;7.454;2022-10-13T13:31:51;20.95;;;4.03;;
54917;SDS011;40818;50.562;7.454;2022-10-13T13:36:58;10.80;;;2.10;;
54917;SDS011;40818;50.562;7.454;2022-10-13T13:42:04;8.27;;;2.33;;
54917;SDS011;40818;50.562;7.454;2022-10-13T13:47:16;8.00;;;1.88;;
54917;SDS011;40818;50.562;7.454;2022-10-13T13:52:24;7.93;;;1.85;;
54917;SDS011;40818;50.562;7.454;2022-10-13T13:57:27;8.07;;;1.63;;
54917;SDS011;40818;50.562;7.454;2022-10-13T14:02:31;11.20;;;2.45;;
54917;SDS011;40818;50.562;7.454;2022-10-13T14:07:37;11.57;;;2.17;;
54917;SDS011;40818;50.562;7.454;2022-10-13T14:12:41;14.60;;;2.38;;
54917;SDS011;40818;50.562;7.454;2022-10-13T14:17:45;11.77;;;2.90;;
54917;SDS011;40818;50.562;7.454;2022-10-13T14:22:51;11.13;;;3.53;;
54917;SDS011;40818;50.562;7.454;2022-10-13T14:27:54;11.75;;;3.45;;
54917;SDS011;40818;50.562;7.454;2022-10-13T14:32:58;17.02;;;3.80;;
54917;SDS011;40818;50.562;7.454;2022-10-13T14:38:07;14.90;;;3.13;;
54917;SDS011;40818;50.562;7.454;2022-10-13T14:43:13;18.65;;;4.43;;
54917;SDS011;40818;50.562;7.454;2022-10-13T14:48:17;17.83;;;3.30;;
54917;SDS011;40818;50.562;7.454;2022-10-13T14:53:23;14.63;;;3.92;;
54917;SDS011;40818;50.562;7.454;2022-10-13T14:58:27;9.05;;;2.50;;
54917;SDS011;40818;50.562;7.454;2022-10-13T15:03:31;7.75;;;2.97;;
54917;SDS011;40818;50.562;7.454;2022-10-13T15:08:37;13.45;;;3.95;;
54917;SDS011;40818;50.562;7.454;2022-10-13T15:13:41;13.02;;;2.63;;
54917;SDS011;40818;50.562;7.454;2022-10-13T15:18:44;14.75;;;3.47;;
54917;SDS011;40818;50.562;7.454;2022-10-13T15:23:50;9.10;;;3.17;;
54917;SDS011;40818;50.562;7.454;2022-10-13T15:28:54;9.85;;;1.92;;
54917;SDS011;40818;50.562;7.454;2022-10-13T15:33:57;14.55;;;2.20;;
54917;SDS011;40818;50.562;7.454;2022-10-13T15:39:05;18.52;;;2.35;;
54917;SDS011;40818;50.562;7.454;2022-10-13T15:44:08;12.85;;;2.30;;
54917;SDS011;40818;50.562;7.454;2022-10-13T15:49:12;8.35;;;2.08;;
54917;SDS011;40818;50.562;7.454;2022-10-13T15:54:18;8.30;;;1.73;;
54917;SDS011;40818;50.562;7.454;2022-10-13T15:59:23;8.27;;;2.65;;
54917;SDS011;40818;50.562;7.454;2022-10-13T16:04:26;18.83;;;2.90;;
54917;SDS011;40818;50.562;7.454;2022-10-13T16:09:32;11.10;;;2.47;;
54917;SDS011;40818;50.562;7.454;2022-10-13T16:14:35;7.55;;;2.10;;
54917;SDS011;40818;50.562;7.454;2022-10-13T16:19:39;15.80;;;2.92;;
54917;SDS011;40818;50.562;7.454;2022-10-13T16:24:45;9.05;;;2.13;;
54917;SDS011;40818;50.562;7.454;2022-10-13T16:29:48;11.70;;;2.75;;
54917;SDS011;40818;50.562;7.454;2022-10-13T16:34:52;7.22;;;3.20;;
54917;SDS011;40818;50.562;7.454;2022-10-13T16:39:58;12.52;;;3.13;;
54917;SDS011;40818;50.562;7.454;2022-10-13T16:45:02;9.48;;;4.00;;
54917;SDS011;40818;50.562;7.454;2022-10-13T16:50:06;13.35;;;2.85;;
54917;SDS011;40818;50.562;7.454;2022-10-13T16:55:13;9.93;;;3.38;;
54917;SDS011;40818;50.562;7.454;2022-10-13T17:00:17;20.15;;;4.32;;
54917;SDS011;40818;50.562;7.454;2022-10-13T17:05:21;11.90;;;3.90;;
54917;SDS011;40818;50.562;7.454;2022-10-13T17:10:29;11.02;;;3.50;;
54917;SDS011;40818;50.562;7.454;2022-10-13T17:15:34;15.75;;;3.40;;
54917;SDS011;40818;50.562;7.454;2022-10-13T17:20:37;10.32;;;3.40;;
54917;SDS011;40818;50.562;7.454;2022-10-13T17:25:43;10.95;;;3.60;;
54917;SDS011;40818;50.562;7.454;2022-10-13T17:30:54;16.77;;;3.22;;
54917;SDS011;40818;50.562;7.454;2022-10-13T17:35:59;10.93;;;4.20;;
54917;SDS011;40818;50.562;7.454;2022-10-13T17:41:06;11.32;;;3.78;;
54917;SDS011;40818;50.562;7.454;2022-10-13T17:46:21;6.95;;;2.50;;
54917;SDS011;40818;50.562;7.454;2022-10-13T17:51:27;12.57;;;3.33;;
54917;SDS011;40818;50.562;7.454;2022-10-13T17:56:33;7.05;;;2.97;;
54917;SDS011;40818;50.562;7.454;2022-10-13T18:01:37;11.73;;;5.00;;
54917;SDS011;40818;50.562;7.454;2022-10-13T18:06:41;12.95;;;3.20;;
54917;SDS011;40818;50.562;7.454;2022-10-13T18:11:51;6.88;;;2.25;;
54917;SDS011;40818;50.562;7.454;2022-10-13T18:16:55;12.30;;;4.88;;
54917;SDS011;40818;50.562;7.454;2022-10-13T18:21:59;6.35;;;3.83;;
54917;SDS011;40818;50.562;7.454;2022-10-13T18:27:05;12.10;;;5.22;;
54917;SDS011;40818;50.562;7.454;2022-10-13T18:32:08;9.52;;;5.70;;
54917;SDS011;40818;50.562;7.454;2022-10-13T18:37:12;14.45;;;5.60;;
54917;SDS011;40818;50.562;7.454;2022-10-13T18:42:18;14.23;;;5.32;;
54917;SDS011;40818;50.562;7.454;2022-10-13T18:47:22;11.52;;;5.57;;
54917;SDS011;40818;50.562;7.454;2022-10-13T18:52:25;9.23;;;4.35;;
54917;SDS011;40818;50.562;7.454;2022-10-13T18:57:33;7.43;;;4.18;;
54917;SDS011;40818;50.562;7.454;2022-10-13T19:02:37;9.45;;;5.00;;
54917;SDS011;40818;50.562;7.454;2022-10-13T19:07:41;8.43;;;5.05;;
54917;SDS011;40818;50.562;7.454;2022-10-13T19:12:47;11.32;;;3.50;;
54917;SDS011;40818;50.562;7.454;2022-10-13T19:17:53;7.30;;;2.60;;
54917;SDS011;40818;50.562;7.454;2022-10-13T19:22:57;8.82;;;2.85;;
54917;SDS011;40818;50.562;7.454;2022-10-13T19:28:03;4.72;;;2.38;;
54917;SDS011;40818;50.562;7.454;2022-10-13T19:33:07;5.60;;;2.50;;
54917;SDS011;40818;50.562;7.454;2022-10-13T19:38:20;5.95;;;1.95;;
54917;SDS011;40818;50.562;7.454;2022-10-13T19:43:26;8.25;;;2.58;;
54917;SDS011;40818;50.562;7.454;2022-10-13T19:48:29;5.55;;;2.72;;
54917;SDS011;40818;50.562;7.454;2022-10-13T19:53:33;9.23;;;3.35;;
54917;SDS011;40818;50.562;7.454;2022-10-13T19:58:40;14.00;;;5.20;;
54917;SDS011;40818;50.562;7.454;2022-10-13T20:03:44;9.93;;;4.85;;
54917;SDS011;40818;50.562;7.454;2022-10-13T20:08:48;8.93;;;3.65;;
54917;SDS011;40818;50.562;7.454;2022-10-13T20:13:54;7.72;;;1.90;;
54917;SDS011;40818;50.562;7.454;2022-10-13T20:18:59;2.80;;;1.10;;
54917;SDS011;40818;50.562;7.454;2022-10-13T20:24:03;6.57;;;1.30;;
54917;SDS011;40818;50.562;7.454;2022-10-13T20:29:09;3.85;;;1.23;;
54917;SDS011;40818;50.562;7.454;2022-10-13T20:34:12;8.80;;;1.40;;
54917;SDS011;40818;50.562;7.454;2022-10-13T20:39:16;6.05;;;1.10;;
54917;SDS011;40818;50.562;7.454;2022-10-13T20:44:22;4.93;;;1.67;;
54917;SDS011;40818;50.562;7.454;2022-10-13T20:49:25;8.10;;;2.67;;
54917;SDS011;40818;50.562;7.454;2022-10-13T20:54:29;9.98;;;3.35;;
54917;SDS011;40818;50.562;7.454;2022-10-13T20:59:35;13.18;;;3.22;;
54917;SDS011;40818;50.562;7.454;2022-10-13T21:04:38;9.32;;;3.50;;
54917;SDS011;40818;50.562;7.454;2022-10-13T21:09:42;10.48;;;2.85;;
54917;SDS011;40818;50.562;7.454;2022-10-13T21:14:48;9.25;;;2.63;;
54917;SDS011;40818;50.562;7.454;2022-10-13T21:19:51;7.82;;;2.50;;
54917;SDS011;40818;50.562;7.454;2022-10-13T21:24:54;7.57;;;2.50;;
54917;SDS011;40818;50.562;7.454;2022-10-13T21:30:00;6.50;;;2.72;;
54917;SDS011;40818;50.562;7.454;2022-10-13T21:35:04;6.28;;;2.42;;
54917;SDS011;40818;50.562;7.454;2022-10-13T21:40:08;9.35;;;1.60;;
54917;SDS011;40818;50.562;7.454;2022-10-13T21:45:15;6.68;;;2.10;;
54917;SDS011;40818;50.562;7.454;2022-10-13T21:50:18;8.23;;;3.00;;
54917;SDS011;40818;50.562;7.454;2022-10-13T21:55:22;8.45;;;3.22;;
54917;SDS011;40818;50.562;7.454;2022-10-13T22:00:29;5.45;;;2.40;;
54917;SDS011;40818;50.562;7.454;2022-10-13T22:05:33;9.02;;;3.55;;
54917;SDS011;40818;50.562;7.454;2022-10-13T22:10:37;11.10;;;3.05;;
54917;SDS011;40818;50.562;7.454;2022-10-13T22:15:43;8.05;;;2.63;;
54917;SDS011;40818;50.562;7.454;2022-10-13T22:20:49;7.93;;;3.83;;
54917;SDS011;40818;50.562;7.454;2022-10-13T22:25:52;7.45;;;2.55;;
54917;SDS011;40818;50.562;7.454;2022-10-13T22:31:01;9.82;;;3.85;;
54917;SDS011;40818;50.562;7.454;2022-10-13T22:36:05;6.90;;;3.72;;
54917;SDS011;40818;50.562;7.454;2022-10-13T22:41:09;5.65;;;3.45;;
54917;SDS011;40818;50.562;7.454;2022-10-13T22:46:17;12.00;;;3.83;;
54917;SDS011;40818;50.562;7.454;2022-10-13T22:51:22;9.70;;;4.05;;
54917;SDS011;40818;50.562;7.454;2022-10-13T22:56:27;8.27;;;2.92;;
54917;SDS011;40818;50.562;7.454;2022-10-13T23:01:35;6.30;;;3.20;;
54917;SDS011;40818;50.562;7.454;2022-10-13T23:06:38;6.55;;;2.22;;
54917;SDS011;40818;50.562;7.454;2022-10-13T23:11:42;8.85;;;2.42;;
54917;SDS011;40818;50.562;7.454;2022-10-13T23:16:54;4.20;;;2.45;;
54917;SDS011;40818;50.562;7.454;2022-10-13T23:21:58;4.05;;;1.85;;
54917;SDS011;40818;50.562;7.454;2022-10-13T23:27:01;8.32;;;2.30;;
54917;SDS011;40818;50.562;7.454;2022-10-13T23:32:07;4.30;;;2.00;;
54917;SDS011;40818;50.562;7.454;2022-10-13T23:37:10;5.57;;;2.15;;
54917;SDS011;40818;50.562;7.454;2022-10-13T23:42:14;4.70;;;2.40;;
54917;SDS011;40818;50.562;7.454;2022-10-13T23:47:20;6.13;;;1.75;;
54917;SDS011;40818;50.562;7.454;2022-10-13T23:52:23;6.38;;;2.50;;
54917;SDS011;40818;50.562;7.454;2022-10-13T23:57:27;5.65;;;2.78;;
